sensor_id;sensor_type;location;lat;lon;timestamp;P1;durP1;ratioP1;P2;durP2;ratioP2
64619;SDS011;51029;51.058;13.826;2024-02-21T00:00:20;11.20;;;4.67;;
64619;SDS011;51029;51.058;13.826;2024-02-21T00:02:45;10.67;;;4.10;;
64619;SDS011;51029;51.058;13.826;2024-02-21T00:05:11;14.07;;;4.70;;
64619;SDS011;51029;51.058;13.826;2024-02-21T00:07:37;12.50;;;4.80;;
64619;SDS011;51029;51.058;13.826;2024-02-21T00:10:03;15.33;;;4.83;;
64619;SDS011;51029;51.058;13.826;2024-02-21T00:12:29;14.63;;;4.93;;
64619;SDS011;51029;51.058;13.826;2024-02-21T00:14:55;9.23;;;4.20;;
64619;SDS011;51029;51.058;13.826;2024-02-21T00:17:21;11.53;;;4.50;;
64619;SDS011;51029;51.058;13.826;2024-02-21T00:19:47;13.30;;;3.87;;
64619;SDS011;51029;51.058;13.826;2024-02-21T00:22:13;13.07;;;4.83;;
64619;SDS011;51029;51.058;13.826;2024-02-21T00:24:39;14.80;;;5.17;;
64619;SDS011;51029;51.058;13.826;2024-02-21T00:27:05;12.17;;;5.03;;
64619;SDS011;51029;51.058;13.826;2024-02-21T00:29:31;12.30;;;4.67;;
64619;SDS011;51029;51.058;13.826;2024-02-21T00:31:57;13.77;;;4.83;;
64619;SDS011;51029;51.058;13.826;2024-02-21T00:34:22;13.80;;;4.87;;
64619;SDS011;51029;51.058;13.826;2024-02-21T00:36:49;14.57;;;4.67;;
64619;SDS011;51029;51.058;13.826;2024-02-21T00:39:15;15.57;;;4.83;;
64619;SDS011;51029;51.058;13.826;2024-02-21T00:41:41;15.67;;;4.70;;
64619;SDS011;51029;51.058;13.826;2024-02-21T00:44:07;11.63;;;4.17;;
64619;SDS011;51029;51.058;13.826;2024-02-21T00:46:33;11.43;;;4.10;;
64619;SDS011;51029;51.058;13.826;2024-02-21T00:48:58;11.80;;;4.13;;
64619;SDS011;51029;51.058;13.826;2024-02-21T00:51:24;12.70;;;4.50;;
64619;SDS011;51029;51.058;13.826;2024-02-21T00:53:50;13.63;;;4.60;;
64619;SDS011;51029;51.058;13.826;2024-02-21T00:56:16;12.80;;;4.50;;
64619;SDS011;51029;51.058;13.826;2024-02-21T00:58:42;11.00;;;4.47;;
64619;SDS011;51029;51.058;13.826;2024-02-21T01:01:08;10.80;;;4.27;;
64619;SDS011;51029;51.058;13.826;2024-02-21T01:03:34;12.23;;;4.10;;
64619;SDS011;51029;51.058;13.826;2024-02-21T01:06:00;12.57;;;4.33;;
64619;SDS011;51029;51.058;13.826;2024-02-21T01:08:26;9.67;;;4.00;;
64619;SDS011;51029;51.058;13.826;2024-02-21T01:10:51;10.13;;;4.07;;
64619;SDS011;51029;51.058;13.826;2024-02-21T01:13:17;11.60;;;3.87;;
64619;SDS011;51029;51.058;13.826;2024-02-21T01:15:43;12.10;;;3.80;;
64619;SDS011;51029;51.058;13.826;2024-02-21T01:18:09;11.20;;;4.53;;
64619;SDS011;51029;51.058;13.826;2024-02-21T01:20:35;11.57;;;3.97;;
64619;SDS011;51029;51.058;13.826;2024-02-21T01:23:01;10.70;;;4.00;;
64619;SDS011;51029;51.058;13.826;2024-02-21T01:25:27;11.17;;;4.10;;
64619;SDS011;51029;51.058;13.826;2024-02-21T01:27:53;11.17;;;4.17;;
64619;SDS011;51029;51.058;13.826;2024-02-21T01:30:19;10.80;;;4.20;;
64619;SDS011;51029;51.058;13.826;2024-02-21T01:32:45;10.87;;;4.07;;
64619;SDS011;51029;51.058;13.826;2024-02-21T01:35:11;14.03;;;4.53;;
64619;SDS011;51029;51.058;13.826;2024-02-21T01:37:36;11.30;;;4.40;;
64619;SDS011;51029;51.058;13.826;2024-02-21T01:40:02;9.30;;;3.40;;
64619;SDS011;51029;51.058;13.826;2024-02-21T01:42:28;9.20;;;4.00;;
64619;SDS011;51029;51.058;13.826;2024-02-21T01:44:54;13.23;;;4.23;;
64619;SDS011;51029;51.058;13.826;2024-02-21T01:47:20;11.03;;;3.30;;
64619;SDS011;51029;51.058;13.826;2024-02-21T01:49:46;16.53;;;4.20;;
64619;SDS011;51029;51.058;13.826;2024-02-21T01:52:12;9.03;;;3.67;;
64619;SDS011;51029;51.058;13.826;2024-02-21T01:54:39;10.87;;;3.77;;
64619;SDS011;51029;51.058;13.826;2024-02-21T01:57:05;11.97;;;4.30;;
64619;SDS011;51029;51.058;13.826;2024-02-21T01:59:31;9.90;;;3.80;;
64619;SDS011;51029;51.058;13.826;2024-02-21T02:01:57;11.83;;;3.90;;
64619;SDS011;51029;51.058;13.826;2024-02-21T02:04:24;9.07;;;4.10;;
64619;SDS011;51029;51.058;13.826;2024-02-21T02:06:50;11.60;;;4.27;;
64619;SDS011;51029;51.058;13.826;2024-02-21T02:09:17;12.80;;;4.07;;
64619;SDS011;51029;51.058;13.826;2024-02-21T02:11:43;10.30;;;3.87;;
64619;SDS011;51029;51.058;13.826;2024-02-21T02:14:09;10.47;;;4.03;;
64619;SDS011;51029;51.058;13.826;2024-02-21T02:16:35;11.67;;;4.63;;
64619;SDS011;51029;51.058;13.826;2024-02-21T02:19:01;9.93;;;3.93;;
64619;SDS011;51029;51.058;13.826;2024-02-21T02:21:32;11.07;;;4.60;;
64619;SDS011;51029;51.058;13.826;2024-02-21T02:23:59;8.63;;;3.83;;
64619;SDS011;51029;51.058;13.826;2024-02-21T02:26:25;11.57;;;4.17;;
64619;SDS011;51029;51.058;13.826;2024-02-21T02:28:52;11.70;;;4.10;;
64619;SDS011;51029;51.058;13.826;2024-02-21T02:31:18;8.77;;;4.17;;
64619;SDS011;51029;51.058;13.826;2024-02-21T02:33:44;11.13;;;3.97;;
64619;SDS011;51029;51.058;13.826;2024-02-21T02:36:10;11.03;;;3.93;;
64619;SDS011;51029;51.058;13.826;2024-02-21T02:38:36;11.20;;;3.60;;
64619;SDS011;51029;51.058;13.826;2024-02-21T02:41:02;9.77;;;4.23;;
64619;SDS011;51029;51.058;13.826;2024-02-21T02:43:28;12.83;;;4.60;;
64619;SDS011;51029;51.058;13.826;2024-02-21T02:45:54;9.60;;;4.00;;
64619;SDS011;51029;51.058;13.826;2024-02-21T02:48:20;8.93;;;4.03;;
64619;SDS011;51029;51.058;13.826;2024-02-21T02:50:46;9.70;;;4.10;;
64619;SDS011;51029;51.058;13.826;2024-02-21T02:53:14;10.50;;;4.60;;
64619;SDS011;51029;51.058;13.826;2024-02-21T02:55:40;15.47;;;4.50;;
64619;SDS011;51029;51.058;13.826;2024-02-21T02:58:06;11.23;;;3.80;;
64619;SDS011;51029;51.058;13.826;2024-02-21T03:00:32;11.10;;;4.50;;
64619;SDS011;51029;51.058;13.826;2024-02-21T03:03:01;12.47;;;4.03;;
64619;SDS011;51029;51.058;13.826;2024-02-21T03:05:28;10.93;;;4.20;;
64619;SDS011;51029;51.058;13.826;2024-02-21T03:07:54;11.63;;;4.50;;
64619;SDS011;51029;51.058;13.826;2024-02-21T03:10:20;11.10;;;4.73;;
64619;SDS011;51029;51.058;13.826;2024-02-21T03:12:46;11.27;;;4.43;;
64619;SDS011;51029;51.058;13.826;2024-02-21T03:15:13;12.20;;;3.90;;
64619;SDS011;51029;51.058;13.826;2024-02-21T03:17:39;11.17;;;4.63;;
64619;SDS011;51029;51.058;13.826;2024-02-21T03:20:05;12.00;;;4.37;;
64619;SDS011;51029;51.058;13.826;2024-02-21T03:22:34;10.37;;;4.00;;
64619;SDS011;51029;51.058;13.826;2024-02-21T03:25:00;11.57;;;4.50;;
64619;SDS011;51029;51.058;13.826;2024-02-21T03:27:26;10.10;;;3.97;;
64619;SDS011;51029;51.058;13.826;2024-02-21T03:29:52;9.53;;;4.43;;
64619;SDS011;51029;51.058;13.826;2024-02-21T03:32:18;13.27;;;4.17;;
64619;SDS011;51029;51.058;13.826;2024-02-21T03:34:44;9.70;;;4.43;;
64619;SDS011;51029;51.058;13.826;2024-02-21T03:37:10;10.83;;;4.33;;
64619;SDS011;51029;51.058;13.826;2024-02-21T03:39:36;14.70;;;5.03;;
64619;SDS011;51029;51.058;13.826;2024-02-21T03:42:02;12.10;;;5.07;;
64619;SDS011;51029;51.058;13.826;2024-02-21T03:44:31;7.87;;;4.07;;
64619;SDS011;51029;51.058;13.826;2024-02-21T03:46:58;14.70;;;5.07;;
64619;SDS011;51029;51.058;13.826;2024-02-21T03:49:24;11.13;;;4.60;;
64619;SDS011;51029;51.058;13.826;2024-02-21T03:51:50;11.87;;;4.93;;
64619;SDS011;51029;51.058;13.826;2024-02-21T03:54:16;13.20;;;4.43;;
64619;SDS011;51029;51.058;13.826;2024-02-21T03:56:42;13.20;;;4.90;;
64619;SDS011;51029;51.058;13.826;2024-02-21T03:59:08;9.70;;;4.47;;
64619;SDS011;51029;51.058;13.826;2024-02-21T04:01:34;12.53;;;4.73;;
64619;SDS011;51029;51.058;13.826;2024-02-21T04:04:01;11.87;;;5.27;;
64619;SDS011;51029;51.058;13.826;2024-02-21T04:06:27;15.40;;;5.07;;
64619;SDS011;51029;51.058;13.826;2024-02-21T04:08:53;14.37;;;5.10;;
64619;SDS011;51029;51.058;13.826;2024-02-21T04:11:19;13.13;;;5.50;;
64619;SDS011;51029;51.058;13.826;2024-02-21T04:13:45;13.17;;;4.83;;
64619;SDS011;51029;51.058;13.826;2024-02-21T04:16:15;11.43;;;4.77;;
64619;SDS011;51029;51.058;13.826;2024-02-21T04:18:41;12.97;;;4.50;;
64619;SDS011;51029;51.058;13.826;2024-02-21T04:21:07;13.57;;;5.00;;
64619;SDS011;51029;51.058;13.826;2024-02-21T04:23:33;14.27;;;5.70;;
64619;SDS011;51029;51.058;13.826;2024-02-21T04:25:59;12.73;;;5.03;;
64619;SDS011;51029;51.058;13.826;2024-02-21T04:28:25;12.70;;;4.47;;
64619;SDS011;51029;51.058;13.826;2024-02-21T04:30:51;12.47;;;5.27;;
64619;SDS011;51029;51.058;13.826;2024-02-21T04:33:16;14.23;;;4.80;;
64619;SDS011;51029;51.058;13.826;2024-02-21T04:35:42;11.63;;;4.57;;
64619;SDS011;51029;51.058;13.826;2024-02-21T04:38:08;13.03;;;4.97;;
64619;SDS011;51029;51.058;13.826;2024-02-21T04:40:34;13.87;;;4.77;;
64619;SDS011;51029;51.058;13.826;2024-02-21T04:43:00;13.50;;;4.90;;
64619;SDS011;51029;51.058;13.826;2024-02-21T04:45:26;12.27;;;4.93;;
64619;SDS011;51029;51.058;13.826;2024-02-21T04:47:52;11.03;;;4.70;;
64619;SDS011;51029;51.058;13.826;2024-02-21T04:50:18;12.10;;;4.87;;
64619;SDS011;51029;51.058;13.826;2024-02-21T04:52:44;10.07;;;5.27;;
64619;SDS011;51029;51.058;13.826;2024-02-21T04:55:10;15.20;;;5.20;;
64619;SDS011;51029;51.058;13.826;2024-02-21T04:57:36;13.63;;;4.93;;
64619;SDS011;51029;51.058;13.826;2024-02-21T05:00:02;14.23;;;5.50;;
64619;SDS011;51029;51.058;13.826;2024-02-21T05:02:28;14.17;;;5.40;;
64619;SDS011;51029;51.058;13.826;2024-02-21T05:04:55;10.50;;;5.20;;
64619;SDS011;51029;51.058;13.826;2024-02-21T05:07:21;9.67;;;5.70;;
64619;SDS011;51029;51.058;13.826;2024-02-21T05:09:47;15.20;;;5.20;;
64619;SDS011;51029;51.058;13.826;2024-02-21T05:12:13;13.13;;;5.07;;
64619;SDS011;51029;51.058;13.826;2024-02-21T05:14:39;15.10;;;5.20;;
64619;SDS011;51029;51.058;13.826;2024-02-21T05:17:05;11.83;;;4.80;;
64619;SDS011;51029;51.058;13.826;2024-02-21T05:19:31;11.87;;;4.73;;
64619;SDS011;51029;51.058;13.826;2024-02-21T05:21:58;9.67;;;4.57;;
64619;SDS011;51029;51.058;13.826;2024-02-21T05:24:24;10.80;;;4.67;;
64619;SDS011;51029;51.058;13.826;2024-02-21T05:26:50;9.27;;;4.10;;
64619;SDS011;51029;51.058;13.826;2024-02-21T05:29:16;10.77;;;4.60;;
64619;SDS011;51029;51.058;13.826;2024-02-21T05:31:54;11.40;;;4.60;;
64619;SDS011;51029;51.058;13.826;2024-02-21T05:34:24;13.63;;;4.97;;
64619;SDS011;51029;51.058;13.826;2024-02-21T05:36:50;12.67;;;4.80;;
64619;SDS011;51029;51.058;13.826;2024-02-21T05:39:17;9.97;;;4.70;;
64619;SDS011;51029;51.058;13.826;2024-02-21T05:41:43;12.23;;;4.90;;
64619;SDS011;51029;51.058;13.826;2024-02-21T05:44:09;11.37;;;4.27;;
64619;SDS011;51029;51.058;13.826;2024-02-21T05:46:35;12.67;;;5.07;;
64619;SDS011;51029;51.058;13.826;2024-02-21T05:49:00;9.53;;;4.57;;
64619;SDS011;51029;51.058;13.826;2024-02-21T05:51:26;11.97;;;5.03;;
64619;SDS011;51029;51.058;13.826;2024-02-21T05:53:52;9.77;;;5.23;;
64619;SDS011;51029;51.058;13.826;2024-02-21T05:56:18;10.43;;;4.70;;
64619;SDS011;51029;51.058;13.826;2024-02-21T05:58:44;12.10;;;5.03;;
64619;SDS011;51029;51.058;13.826;2024-02-21T06:01:10;13.10;;;5.30;;
64619;SDS011;51029;51.058;13.826;2024-02-21T06:03:36;9.10;;;4.67;;
64619;SDS011;51029;51.058;13.826;2024-02-21T06:06:02;11.10;;;5.30;;
64619;SDS011;51029;51.058;13.826;2024-02-21T06:08:29;11.13;;;5.20;;
64619;SDS011;51029;51.058;13.826;2024-02-21T06:10:55;12.17;;;4.97;;
64619;SDS011;51029;51.058;13.826;2024-02-21T06:13:21;12.23;;;5.10;;
64619;SDS011;51029;51.058;13.826;2024-02-21T06:15:47;13.00;;;4.93;;
64619;SDS011;51029;51.058;13.826;2024-02-21T06:18:15;7.80;;;4.67;;
64619;SDS011;51029;51.058;13.826;2024-02-21T06:20:41;11.03;;;4.63;;
64619;SDS011;51029;51.058;13.826;2024-02-21T06:23:08;9.43;;;4.80;;
64619;SDS011;51029;51.058;13.826;2024-02-21T06:25:34;10.27;;;4.63;;
64619;SDS011;51029;51.058;13.826;2024-02-21T06:28:00;10.30;;;5.13;;
64619;SDS011;51029;51.058;13.826;2024-02-21T06:30:26;12.63;;;5.07;;
64619;SDS011;51029;51.058;13.826;2024-02-21T06:32:52;12.30;;;4.83;;
64619;SDS011;51029;51.058;13.826;2024-02-21T06:35:20;11.13;;;5.50;;
64619;SDS011;51029;51.058;13.826;2024-02-21T06:37:46;12.73;;;5.37;;
64619;SDS011;51029;51.058;13.826;2024-02-21T06:40:16;11.93;;;5.27;;
64619;SDS011;51029;51.058;13.826;2024-02-21T06:42:42;10.63;;;5.50;;
64619;SDS011;51029;51.058;13.826;2024-02-21T06:45:08;14.67;;;5.00;;
64619;SDS011;51029;51.058;13.826;2024-02-21T06:47:34;11.57;;;4.90;;
64619;SDS011;51029;51.058;13.826;2024-02-21T06:50:00;7.90;;;4.53;;
64619;SDS011;51029;51.058;13.826;2024-02-21T06:52:26;11.47;;;4.50;;
64619;SDS011;51029;51.058;13.826;2024-02-21T06:54:52;11.97;;;4.80;;
64619;SDS011;51029;51.058;13.826;2024-02-21T06:57:17;9.13;;;4.60;;
64619;SDS011;51029;51.058;13.826;2024-02-21T06:59:43;10.80;;;4.57;;
64619;SDS011;51029;51.058;13.826;2024-02-21T07:02:09;9.57;;;5.30;;
64619;SDS011;51029;51.058;13.826;2024-02-21T07:04:35;10.57;;;5.00;;
64619;SDS011;51029;51.058;13.826;2024-02-21T07:07:01;12.20;;;5.20;;
64619;SDS011;51029;51.058;13.826;2024-02-21T07:09:27;10.87;;;4.93;;
64619;SDS011;51029;51.058;13.826;2024-02-21T07:11:56;11.97;;;5.07;;
64619;SDS011;51029;51.058;13.826;2024-02-21T07:14:22;10.63;;;5.13;;
64619;SDS011;51029;51.058;13.826;2024-02-21T07:16:48;11.70;;;4.73;;
64619;SDS011;51029;51.058;13.826;2024-02-21T07:19:14;13.43;;;5.47;;
64619;SDS011;51029;51.058;13.826;2024-02-21T07:21:40;9.53;;;4.57;;
64619;SDS011;51029;51.058;13.826;2024-02-21T07:24:09;13.90;;;4.83;;
64619;SDS011;51029;51.058;13.826;2024-02-21T07:26:35;13.67;;;4.90;;
64619;SDS011;51029;51.058;13.826;2024-02-21T07:29:01;9.10;;;4.80;;
64619;SDS011;51029;51.058;13.826;2024-02-21T07:31:26;13.47;;;5.37;;
64619;SDS011;51029;51.058;13.826;2024-02-21T07:33:52;13.17;;;5.47;;
64619;SDS011;51029;51.058;13.826;2024-02-21T07:36:30;13.60;;;4.73;;
64619;SDS011;51029;51.058;13.826;2024-02-21T07:38:56;11.20;;;4.87;;
64619;SDS011;51029;51.058;13.826;2024-02-21T07:41:22;13.27;;;4.77;;
64619;SDS011;51029;51.058;13.826;2024-02-21T07:43:48;10.80;;;4.70;;
64619;SDS011;51029;51.058;13.826;2024-02-21T07:46:15;10.83;;;4.63;;
64619;SDS011;51029;51.058;13.826;2024-02-21T07:48:41;13.30;;;4.93;;
64619;SDS011;51029;51.058;13.826;2024-02-21T07:51:06;12.00;;;5.13;;
64619;SDS011;51029;51.058;13.826;2024-02-21T07:53:32;11.83;;;4.47;;
64619;SDS011;51029;51.058;13.826;2024-02-21T07:55:59;11.67;;;5.00;;
64619;SDS011;51029;51.058;13.826;2024-02-21T07:58:25;9.10;;;4.77;;
64619;SDS011;51029;51.058;13.826;2024-02-21T08:00:51;10.53;;;5.07;;
64619;SDS011;51029;51.058;13.826;2024-02-21T08:03:17;11.63;;;4.80;;
64619;SDS011;51029;51.058;13.826;2024-02-21T08:05:43;12.53;;;4.80;;
64619;SDS011;51029;51.058;13.826;2024-02-21T08:08:09;9.70;;;4.50;;
64619;SDS011;51029;51.058;13.826;2024-02-21T08:10:35;10.50;;;4.60;;
64619;SDS011;51029;51.058;13.826;2024-02-21T08:13:01;9.87;;;4.40;;
64619;SDS011;51029;51.058;13.826;2024-02-21T08:15:27;11.20;;;4.77;;
64619;SDS011;51029;51.058;13.826;2024-02-21T08:17:55;13.47;;;5.00;;
64619;SDS011;51029;51.058;13.826;2024-02-21T08:20:24;10.73;;;5.00;;
64619;SDS011;51029;51.058;13.826;2024-02-21T08:22:50;10.90;;;4.83;;
64619;SDS011;51029;51.058;13.826;2024-02-21T08:25:16;13.97;;;4.67;;
64619;SDS011;51029;51.058;13.826;2024-02-21T08:27:42;12.03;;;4.70;;
64619;SDS011;51029;51.058;13.826;2024-02-21T08:30:08;8.80;;;4.53;;
64619;SDS011;51029;51.058;13.826;2024-02-21T08:32:34;9.83;;;4.93;;
64619;SDS011;51029;51.058;13.826;2024-02-21T08:35:01;9.90;;;4.80;;
64619;SDS011;51029;51.058;13.826;2024-02-21T08:37:28;9.87;;;4.80;;
64619;SDS011;51029;51.058;13.826;2024-02-21T08:39:53;8.63;;;4.43;;
64619;SDS011;51029;51.058;13.826;2024-02-21T08:42:20;12.03;;;4.53;;
64619;SDS011;51029;51.058;13.826;2024-02-21T08:44:45;11.13;;;4.47;;
64619;SDS011;51029;51.058;13.826;2024-02-21T08:47:11;9.33;;;4.13;;
64619;SDS011;51029;51.058;13.826;2024-02-21T08:49:37;10.90;;;4.77;;
64619;SDS011;51029;51.058;13.826;2024-02-21T08:52:04;8.40;;;4.50;;
64619;SDS011;51029;51.058;13.826;2024-02-21T08:54:30;11.90;;;4.57;;
64619;SDS011;51029;51.058;13.826;2024-02-21T08:56:56;9.63;;;4.47;;
64619;SDS011;51029;51.058;13.826;2024-02-21T08:59:22;9.07;;;4.20;;
64619;SDS011;51029;51.058;13.826;2024-02-21T09:01:48;8.17;;;4.47;;
64619;SDS011;51029;51.058;13.826;2024-02-21T09:04:14;10.70;;;4.20;;
64619;SDS011;51029;51.058;13.826;2024-02-21T09:06:40;9.87;;;4.53;;
64619;SDS011;51029;51.058;13.826;2024-02-21T09:09:08;10.73;;;4.30;;
64619;SDS011;51029;51.058;13.826;2024-02-21T09:11:35;7.47;;;4.43;;
64619;SDS011;51029;51.058;13.826;2024-02-21T09:14:01;9.40;;;4.57;;
64619;SDS011;51029;51.058;13.826;2024-02-21T09:16:28;9.70;;;5.07;;
64619;SDS011;51029;51.058;13.826;2024-02-21T09:18:54;9.73;;;4.67;;
64619;SDS011;51029;51.058;13.826;2024-02-21T09:21:22;9.37;;;5.00;;
64619;SDS011;51029;51.058;13.826;2024-02-21T09:23:48;10.43;;;4.57;;
64619;SDS011;51029;51.058;13.826;2024-02-21T09:26:14;8.43;;;4.70;;
64619;SDS011;51029;51.058;13.826;2024-02-21T09:28:42;13.73;;;5.40;;
64619;SDS011;51029;51.058;13.826;2024-02-21T09:31:08;10.73;;;5.00;;
64619;SDS011;51029;51.058;13.826;2024-02-21T09:33:34;9.60;;;5.57;;
64619;SDS011;51029;51.058;13.826;2024-02-21T09:36:00;9.87;;;4.47;;
64619;SDS011;51029;51.058;13.826;2024-02-21T09:38:26;13.10;;;6.30;;
64619;SDS011;51029;51.058;13.826;2024-02-21T09:40:55;13.60;;;6.10;;
64619;SDS011;51029;51.058;13.826;2024-02-21T09:43:24;9.60;;;5.20;;
64619;SDS011;51029;51.058;13.826;2024-02-21T09:45:51;10.87;;;5.63;;
64619;SDS011;51029;51.058;13.826;2024-02-21T09:48:25;13.13;;;6.30;;
64619;SDS011;51029;51.058;13.826;2024-02-21T09:50:54;10.13;;;5.27;;
64619;SDS011;51029;51.058;13.826;2024-02-21T09:53:21;11.63;;;5.23;;
64619;SDS011;51029;51.058;13.826;2024-02-21T09:55:50;8.10;;;5.23;;
64619;SDS011;51029;51.058;13.826;2024-02-21T09:58:16;7.90;;;5.20;;
64619;SDS011;51029;51.058;13.826;2024-02-21T10:00:42;9.37;;;4.83;;
64619;SDS011;51029;51.058;13.826;2024-02-21T10:03:08;9.63;;;5.10;;
64619;SDS011;51029;51.058;13.826;2024-02-21T10:05:34;7.47;;;4.33;;
64619;SDS011;51029;51.058;13.826;2024-02-21T10:08:00;9.50;;;4.40;;
64619;SDS011;51029;51.058;13.826;2024-02-21T10:10:26;8.07;;;4.67;;
64619;SDS011;51029;51.058;13.826;2024-02-21T10:12:54;6.63;;;4.23;;
64619;SDS011;51029;51.058;13.826;2024-02-21T10:15:21;11.37;;;4.90;;
64619;SDS011;51029;51.058;13.826;2024-02-21T10:17:47;10.53;;;4.87;;
64619;SDS011;51029;51.058;13.826;2024-02-21T10:20:13;12.87;;;4.63;;
64619;SDS011;51029;51.058;13.826;2024-02-21T10:22:40;13.07;;;5.17;;
64619;SDS011;51029;51.058;13.826;2024-02-21T10:25:06;9.27;;;4.73;;
64619;SDS011;51029;51.058;13.826;2024-02-21T10:27:32;7.83;;;4.23;;
64619;SDS011;51029;51.058;13.826;2024-02-21T10:29:58;9.80;;;4.60;;
64619;SDS011;51029;51.058;13.826;2024-02-21T10:32:24;10.30;;;4.57;;
64619;SDS011;51029;51.058;13.826;2024-02-21T10:35:00;6.77;;;4.20;;
64619;SDS011;51029;51.058;13.826;2024-02-21T10:37:26;8.63;;;4.27;;
64619;SDS011;51029;51.058;13.826;2024-02-21T10:39:53;8.87;;;4.00;;
64619;SDS011;51029;51.058;13.826;2024-02-21T10:42:21;8.93;;;4.47;;
64619;SDS011;51029;51.058;13.826;2024-02-21T10:44:48;10.17;;;4.27;;
64619;SDS011;51029;51.058;13.826;2024-02-21T10:47:16;8.13;;;4.33;;
64619;SDS011;51029;51.058;13.826;2024-02-21T10:49:46;7.17;;;4.03;;
64619;SDS011;51029;51.058;13.826;2024-02-21T10:55:04;9.17;;;4.10;;
64619;SDS011;51029;51.058;13.826;2024-02-21T10:57:33;10.33;;;5.17;;
64619;SDS011;51029;51.058;13.826;2024-02-21T11:00:00;11.10;;;5.27;;
64619;SDS011;51029;51.058;13.826;2024-02-21T11:02:27;10.47;;;4.87;;
64619;SDS011;51029;51.058;13.826;2024-02-21T11:04:56;13.23;;;5.00;;
64619;SDS011;51029;51.058;13.826;2024-02-21T11:07:23;7.90;;;4.50;;
64619;SDS011;51029;51.058;13.826;2024-02-21T11:09:52;8.57;;;3.90;;
64619;SDS011;51029;51.058;13.826;2024-02-21T11:12:20;6.90;;;3.70;;
64619;SDS011;51029;51.058;13.826;2024-02-21T11:14:46;8.33;;;3.87;;
64619;SDS011;51029;51.058;13.826;2024-02-21T11:17:19;8.93;;;3.70;;
64619;SDS011;51029;51.058;13.826;2024-02-21T11:19:51;7.60;;;3.80;;
64619;SDS011;51029;51.058;13.826;2024-02-21T11:22:18;7.00;;;3.67;;
64619;SDS011;51029;51.058;13.826;2024-02-21T11:24:44;6.73;;;3.67;;
64619;SDS011;51029;51.058;13.826;2024-02-21T11:27:19;7.53;;;4.20;;
64619;SDS011;51029;51.058;13.826;2024-02-21T11:29:46;7.83;;;3.83;;
64619;SDS011;51029;51.058;13.826;2024-02-21T11:32:14;7.73;;;3.77;;
64619;SDS011;51029;51.058;13.826;2024-02-21T11:34:40;11.23;;;3.93;;
64619;SDS011;51029;51.058;13.826;2024-02-21T11:37:12;7.30;;;3.33;;
64619;SDS011;51029;51.058;13.826;2024-02-21T11:39:40;8.87;;;3.97;;
64619;SDS011;51029;51.058;13.826;2024-02-21T11:42:07;5.90;;;3.57;;
64619;SDS011;51029;51.058;13.826;2024-02-21T11:44:34;6.80;;;3.60;;
64619;SDS011;51029;51.058;13.826;2024-02-21T11:47:00;8.20;;;3.90;;
64619;SDS011;51029;51.058;13.826;2024-02-21T11:49:28;5.40;;;3.87;;
64619;SDS011;51029;51.058;13.826;2024-02-21T11:52:00;8.13;;;3.60;;
64619;SDS011;51029;51.058;13.826;2024-02-21T11:54:29;9.90;;;3.80;;
64619;SDS011;51029;51.058;13.826;2024-02-21T11:56:54;7.33;;;3.70;;
64619;SDS011;51029;51.058;13.826;2024-02-21T11:59:20;10.00;;;3.63;;
64619;SDS011;51029;51.058;13.826;2024-02-21T12:01:47;9.53;;;4.33;;
64619;SDS011;51029;51.058;13.826;2024-02-21T12:04:13;8.67;;;3.93;;
64619;SDS011;51029;51.058;13.826;2024-02-21T12:06:38;7.17;;;3.93;;
64619;SDS011;51029;51.058;13.826;2024-02-21T12:09:08;8.23;;;3.77;;
64619;SDS011;51029;51.058;13.826;2024-02-21T12:11:36;8.00;;;3.60;;
64619;SDS011;51029;51.058;13.826;2024-02-21T12:14:03;7.03;;;3.60;;
64619;SDS011;51029;51.058;13.826;2024-02-21T12:16:33;7.50;;;3.80;;
64619;SDS011;51029;51.058;13.826;2024-02-21T12:18:59;8.07;;;3.80;;
64619;SDS011;51029;51.058;13.826;2024-02-21T12:21:26;6.73;;;3.50;;
64619;SDS011;51029;51.058;13.826;2024-02-21T12:23:53;8.63;;;3.97;;
64619;SDS011;51029;51.058;13.826;2024-02-21T12:26:19;7.90;;;3.73;;
64619;SDS011;51029;51.058;13.826;2024-02-21T12:28:45;5.77;;;3.30;;
64619;SDS011;51029;51.058;13.826;2024-02-21T12:31:12;5.70;;;3.13;;
64619;SDS011;51029;51.058;13.826;2024-02-21T12:33:37;6.50;;;4.10;;
64619;SDS011;51029;51.058;13.826;2024-02-21T12:36:03;8.33;;;3.90;;
64619;SDS011;51029;51.058;13.826;2024-02-21T12:38:29;6.23;;;3.60;;
64619;SDS011;51029;51.058;13.826;2024-02-21T12:40:55;5.63;;;3.27;;
64619;SDS011;51029;51.058;13.826;2024-02-21T12:43:25;6.30;;;3.33;;
64619;SDS011;51029;51.058;13.826;2024-02-21T12:45:51;6.33;;;3.00;;
64619;SDS011;51029;51.058;13.826;2024-02-21T12:48:17;5.70;;;3.37;;
64619;SDS011;51029;51.058;13.826;2024-02-21T12:50:48;5.53;;;3.20;;
64619;SDS011;51029;51.058;13.826;2024-02-21T12:53:15;6.23;;;3.10;;
64619;SDS011;51029;51.058;13.826;2024-02-21T12:55:41;3.73;;;2.80;;
64619;SDS011;51029;51.058;13.826;2024-02-21T12:58:07;5.13;;;2.97;;
64619;SDS011;51029;51.058;13.826;2024-02-21T13:00:34;5.20;;;2.90;;
64619;SDS011;51029;51.058;13.826;2024-02-21T13:03:00;6.57;;;3.13;;
64619;SDS011;51029;51.058;13.826;2024-02-21T13:05:27;8.20;;;3.47;;
64619;SDS011;51029;51.058;13.826;2024-02-21T13:07:53;5.83;;;3.00;;
64619;SDS011;51029;51.058;13.826;2024-02-21T13:10:19;6.50;;;3.00;;
64619;SDS011;51029;51.058;13.826;2024-02-21T13:12:46;4.30;;;2.80;;
64619;SDS011;51029;51.058;13.826;2024-02-21T13:15:12;10.00;;;3.10;;
64619;SDS011;51029;51.058;13.826;2024-02-21T13:17:38;4.23;;;2.53;;
64619;SDS011;51029;51.058;13.826;2024-02-21T13:20:04;4.57;;;2.63;;
64619;SDS011;51029;51.058;13.826;2024-02-21T13:22:30;6.50;;;2.60;;
64619;SDS011;51029;51.058;13.826;2024-02-21T13:24:56;6.50;;;3.10;;
64619;SDS011;51029;51.058;13.826;2024-02-21T13:27:22;6.67;;;2.83;;
64619;SDS011;51029;51.058;13.826;2024-02-21T13:29:48;5.23;;;3.03;;
64619;SDS011;51029;51.058;13.826;2024-02-21T13:32:14;7.67;;;3.17;;
64619;SDS011;51029;51.058;13.826;2024-02-21T13:34:40;6.70;;;3.17;;
64619;SDS011;51029;51.058;13.826;2024-02-21T13:37:07;4.87;;;3.27;;
64619;SDS011;51029;51.058;13.826;2024-02-21T13:39:34;5.63;;;3.27;;
64619;SDS011;51029;51.058;13.826;2024-02-21T13:42:00;7.00;;;3.17;;
64619;SDS011;51029;51.058;13.826;2024-02-21T13:44:27;6.40;;;2.87;;
64619;SDS011;51029;51.058;13.826;2024-02-21T13:46:53;5.97;;;2.80;;
64619;SDS011;51029;51.058;13.826;2024-02-21T13:49:19;7.27;;;3.13;;
64619;SDS011;51029;51.058;13.826;2024-02-21T13:51:45;7.00;;;2.67;;
64619;SDS011;51029;51.058;13.826;2024-02-21T13:54:11;4.73;;;2.90;;
64619;SDS011;51029;51.058;13.826;2024-02-21T13:56:39;5.37;;;2.97;;
64619;SDS011;51029;51.058;13.826;2024-02-21T13:59:05;5.97;;;3.00;;
64619;SDS011;51029;51.058;13.826;2024-02-21T14:01:31;6.07;;;3.00;;
64619;SDS011;51029;51.058;13.826;2024-02-21T14:03:57;6.67;;;2.97;;
64619;SDS011;51029;51.058;13.826;2024-02-21T14:06:23;5.57;;;2.70;;
64619;SDS011;51029;51.058;13.826;2024-02-21T14:08:49;5.73;;;2.90;;
64619;SDS011;51029;51.058;13.826;2024-02-21T14:11:15;7.13;;;3.17;;
64619;SDS011;51029;51.058;13.826;2024-02-21T14:13:41;10.73;;;3.70;;
64619;SDS011;51029;51.058;13.826;2024-02-21T14:16:10;7.93;;;3.53;;
64619;SDS011;51029;51.058;13.826;2024-02-21T14:18:38;8.53;;;3.33;;
64619;SDS011;51029;51.058;13.826;2024-02-21T14:21:05;8.03;;;3.37;;
64619;SDS011;51029;51.058;13.826;2024-02-21T14:23:31;7.60;;;3.30;;